Terminal Aerodrome Forecast
Issued by NWS Charleston, WV

Current Version | Previous Version | Graphics & Text | Print | Product List | Glossary On
Versions: 1 2 3 4 5 6 7 8 9 10 11 12 13 14 15 16 17 18 19 20 21 22 23 24 25 26 27 28 29 30 31
000
FTUS41 KRLX 260500 RRA
TAFEKN
TAF
KEKN 260542Z 2606/2706 17004KT 3SM -RA BR SCT025 OVC035
      TEMPO 2606/2610 2SM -RA BR BKN025
     FM261000 13005KT 4SM -RA BR OVC025
     FM261600 12004KT P6SM -RA OVC025
     FM261800 12004KT 4SM -SN OVC018
     FM262100 00000KT 3SM -SN BR OVC012
     FM262300 30004KT 1SM -SN BR OVC010=

USA.gov is the U.S. government's official web portal to all federal, state and local government web resources and services.